sensor_id;sensor_type;location;lat;lon;timestamp;temperature;humidity
16655;DHT22;8441;51.344;7.022;2023-02-15T00:00:19;4.90;99.90
16655;DHT22;8441;51.344;7.022;2023-02-15T00:02:47;5.00;99.90
16655;DHT22;8441;51.344;7.022;2023-02-15T00:05:14;5.00;99.90
16655;DHT22;8441;51.344;7.022;2023-02-15T00:07:41;4.90;99.90
16655;DHT22;8441;51.344;7.022;2023-02-15T00:10:09;4.90;99.90
16655;DHT22;8441;51.344;7.022;2023-02-15T00:12:37;4.80;99.90
16655;DHT22;8441;51.344;7.022;2023-02-15T00:15:05;4.80;99.90
16655;DHT22;8441;51.344;7.022;2023-02-15T00:17:33;4.80;99.90
16655;DHT22;8441;51.344;7.022;2023-02-15T00:20:01;4.80;99.90
16655;DHT22;8441;51.344;7.022;2023-02-15T00:22:28;4.80;99.90
16655;DHT22;8441;51.344;7.022;2023-02-15T00:24:55;4.80;99.90
16655;DHT22;8441;51.344;7.022;2023-02-15T00:27:23;4.70;99.90
16655;DHT22;8441;51.344;7.022;2023-02-15T00:29:50;4.70;99.90
16655;DHT22;8441;51.344;7.022;2023-02-15T00:32:17;4.70;99.90
16655;DHT22;8441;51.344;7.022;2023-02-15T00:34:46;4.70;99.90
16655;DHT22;8441;51.344;7.022;2023-02-15T00:37:13;4.70;99.90
16655;DHT22;8441;51.344;7.022;2023-02-15T00:39:40;4.70;99.90
16655;DHT22;8441;51.344;7.022;2023-02-15T00:42:07;4.60;99.90
16655;DHT22;8441;51.344;7.022;2023-02-15T00:44:34;4.50;99.90
16655;DHT22;8441;51.344;7.022;2023-02-15T00:47:02;4.50;99.90
16655;DHT22;8441;51.344;7.022;2023-02-15T00:49:29;4.50;99.90
16655;DHT22;8441;51.344;7.022;2023-02-15T00:51:57;4.50;99.90
16655;DHT22;8441;51.344;7.022;2023-02-15T00:54:24;4.60;99.90
16655;DHT22;8441;51.344;7.022;2023-02-15T00:56:51;4.60;99.90
16655;DHT22;8441;51.344;7.022;2023-02-15T00:59:19;4.70;99.90
16655;DHT22;8441;51.344;7.022;2023-02-15T01:01:46;4.70;99.90
16655;DHT22;8441;51.344;7.022;2023-02-15T01:04:13;4.70;99.90
16655;DHT22;8441;51.344;7.022;2023-02-15T01:06:40;4.60;99.90
16655;DHT22;8441;51.344;7.022;2023-02-15T01:09:09;4.60;99.90
16655;DHT22;8441;51.344;7.022;2023-02-15T01:11:36;4.50;99.90
16655;DHT22;8441;51.344;7.022;2023-02-15T01:14:03;4.60;99.90
16655;DHT22;8441;51.344;7.022;2023-02-15T01:16:33;4.50;99.90
16655;DHT22;8441;51.344;7.022;2023-02-15T01:19:00;4.40;99.90
16655;DHT22;8441;51.344;7.022;2023-02-15T01:21:28;4.40;99.90
16655;DHT22;8441;51.344;7.022;2023-02-15T01:23:55;4.40;99.90
16655;DHT22;8441;51.344;7.022;2023-02-15T01:26:24;4.40;99.90
16655;DHT22;8441;51.344;7.022;2023-02-15T01:28:51;4.30;99.90
16655;DHT22;8441;51.344;7.022;2023-02-15T01:31:19;4.30;99.90
16655;DHT22;8441;51.344;7.022;2023-02-15T01:33:47;4.30;99.90
16655;DHT22;8441;51.344;7.022;2023-02-15T01:36:14;4.30;99.90
16655;DHT22;8441;51.344;7.022;2023-02-15T01:38:43;4.40;99.90
16655;DHT22;8441;51.344;7.022;2023-02-15T01:41:10;4.40;99.90
16655;DHT22;8441;51.344;7.022;2023-02-15T01:43:54;4.30;99.90
16655;DHT22;8441;51.344;7.022;2023-02-15T01:46:24;4.30;99.90
16655;DHT22;8441;51.344;7.022;2023-02-15T01:48:57;4.30;99.90
16655;DHT22;8441;51.344;7.022;2023-02-15T01:51:27;4.20;99.90
16655;DHT22;8441;51.344;7.022;2023-02-15T01:54:00;4.40;99.90
16655;DHT22;8441;51.344;7.022;2023-02-15T01:56:34;4.20;99.90
16655;DHT22;8441;51.344;7.022;2023-02-15T01:59:07;4.20;99.90
16655;DHT22;8441;51.344;7.022;2023-02-15T02:01:35;4.20;99.90
16655;DHT22;8441;51.344;7.022;2023-02-15T02:04:10;4.20;99.90
16655;DHT22;8441;51.344;7.022;2023-02-15T02:06:40;4.00;99.90
16655;DHT22;8441;51.344;7.022;2023-02-15T02:09:07;3.90;99.90
16655;DHT22;8441;51.344;7.022;2023-02-15T02:11:36;3.70;99.90
16655;DHT22;8441;51.344;7.022;2023-02-15T02:14:04;3.60;99.90
16655;DHT22;8441;51.344;7.022;2023-02-15T02:16:38;3.60;99.90
16655;DHT22;8441;51.344;7.022;2023-02-15T02:31:47;3.20;99.90
16655;DHT22;8441;51.344;7.022;2023-02-15T02:34:25;3.30;99.90
16655;DHT22;8441;51.344;7.022;2023-02-15T02:36:59;3.30;99.90
16655;DHT22;8441;51.344;7.022;2023-02-15T02:39:33;3.30;99.90
16655;DHT22;8441;51.344;7.022;2023-02-15T02:42:07;3.20;99.90
16655;DHT22;8441;51.344;7.022;2023-02-15T02:44:41;3.20;99.90
16655;DHT22;8441;51.344;7.022;2023-02-15T02:47:13;3.20;99.90
16655;DHT22;8441;51.344;7.022;2023-02-15T02:49:44;3.10;99.90
16655;DHT22;8441;51.344;7.022;2023-02-15T02:52:37;3.10;99.90
16655;DHT22;8441;51.344;7.022;2023-02-15T02:55:06;3.10;99.90
16655;DHT22;8441;51.344;7.022;2023-02-15T02:57:39;3.10;99.90
16655;DHT22;8441;51.344;7.022;2023-02-15T03:00:07;3.20;99.90
16655;DHT22;8441;51.344;7.022;2023-02-15T03:02:37;3.50;99.90
16655;DHT22;8441;51.344;7.022;2023-02-15T03:05:11;3.60;99.90
16655;DHT22;8441;51.344;7.022;2023-02-15T03:07:41;3.60;99.90
16655;DHT22;8441;51.344;7.022;2023-02-15T03:10:10;3.50;99.90
16655;DHT22;8441;51.344;7.022;2023-02-15T03:12:40;3.70;99.90
16655;DHT22;8441;51.344;7.022;2023-02-15T03:15:11;3.60;99.90
16655;DHT22;8441;51.344;7.022;2023-02-15T03:17:42;3.50;99.90
16655;DHT22;8441;51.344;7.022;2023-02-15T03:20:14;3.40;99.90
16655;DHT22;8441;51.344;7.022;2023-02-15T03:22:47;3.30;99.90
16655;DHT22;8441;51.344;7.022;2023-02-15T03:25:19;3.20;99.90
16655;DHT22;8441;51.344;7.022;2023-02-15T03:27:51;3.10;99.90
16655;DHT22;8441;51.344;7.022;2023-02-15T03:30:21;3.00;99.90
16655;DHT22;8441;51.344;7.022;2023-02-15T03:32:50;3.00;99.90
16655;DHT22;8441;51.344;7.022;2023-02-15T03:35:22;3.10;99.90
16655;DHT22;8441;51.344;7.022;2023-02-15T03:37:53;3.20;99.90
16655;DHT22;8441;51.344;7.022;2023-02-15T03:40:23;3.20;99.90
16655;DHT22;8441;51.344;7.022;2023-02-15T03:43:14;3.20;99.90
16655;DHT22;8441;51.344;7.022;2023-02-15T03:45:46;3.10;99.90
16655;DHT22;8441;51.344;7.022;2023-02-15T03:48:24;3.10;99.90
16655;DHT22;8441;51.344;7.022;2023-02-15T03:50:56;3.10;99.90
16655;DHT22;8441;51.344;7.022;2023-02-15T03:53:43;3.10;99.90
16655;DHT22;8441;51.344;7.022;2023-02-15T03:56:12;3.00;99.90
16655;DHT22;8441;51.344;7.022;2023-02-15T03:58:39;3.00;99.90
16655;DHT22;8441;51.344;7.022;2023-02-15T04:01:30;3.00;99.90
16655;DHT22;8441;51.344;7.022;2023-02-15T04:04:32;3.00;99.90
16655;DHT22;8441;51.344;7.022;2023-02-15T04:07:01;3.00;99.90
16655;DHT22;8441;51.344;7.022;2023-02-15T04:09:29;3.00;99.90
16655;DHT22;8441;51.344;7.022;2023-02-15T04:12:14;2.90;99.90
16655;DHT22;8441;51.344;7.022;2023-02-15T04:14:41;2.90;99.90
16655;DHT22;8441;51.344;7.022;2023-02-15T04:17:25;3.00;99.90
16655;DHT22;8441;51.344;7.022;2023-02-15T04:19:52;3.00;99.90
16655;DHT22;8441;51.344;7.022;2023-02-15T04:22:38;3.00;99.90
16655;DHT22;8441;51.344;7.022;2023-02-15T04:25:23;3.00;99.90
16655;DHT22;8441;51.344;7.022;2023-02-15T04:27:52;2.90;99.90
16655;DHT22;8441;51.344;7.022;2023-02-15T04:30:20;2.90;99.90
16655;DHT22;8441;51.344;7.022;2023-02-15T04:32:48;2.80;99.90
16655;DHT22;8441;51.344;7.022;2023-02-15T04:35:16;2.80;99.90
16655;DHT22;8441;51.344;7.022;2023-02-15T04:37:44;2.90;99.90
16655;DHT22;8441;51.344;7.022;2023-02-15T04:40:13;2.80;99.90
16655;DHT22;8441;51.344;7.022;2023-02-15T04:42:41;2.80;99.90
16655;DHT22;8441;51.344;7.022;2023-02-15T04:45:08;2.80;99.90
16655;DHT22;8441;51.344;7.022;2023-02-15T04:47:35;2.90;99.90
16655;DHT22;8441;51.344;7.022;2023-02-15T04:50:03;2.90;99.90
16655;DHT22;8441;51.344;7.022;2023-02-15T04:52:30;2.90;99.90
16655;DHT22;8441;51.344;7.022;2023-02-15T04:54:59;2.90;99.90
16655;DHT22;8441;51.344;7.022;2023-02-15T04:57:26;3.00;99.90
16655;DHT22;8441;51.344;7.022;2023-02-15T04:59:53;3.00;99.90
16655;DHT22;8441;51.344;7.022;2023-02-15T05:02:21;2.90;99.90
16655;DHT22;8441;51.344;7.022;2023-02-15T05:04:48;2.90;99.90
16655;DHT22;8441;51.344;7.022;2023-02-15T05:07:15;2.90;99.90
16655;DHT22;8441;51.344;7.022;2023-02-15T05:09:43;2.80;99.90
16655;DHT22;8441;51.344;7.022;2023-02-15T05:12:12;2.80;99.90
16655;DHT22;8441;51.344;7.022;2023-02-15T05:14:39;2.70;99.90
16655;DHT22;8441;51.344;7.022;2023-02-15T05:17:06;2.70;99.90
16655;DHT22;8441;51.344;7.022;2023-02-15T05:19:33;2.60;99.90
16655;DHT22;8441;51.344;7.022;2023-02-15T05:22:00;2.70;99.90
16655;DHT22;8441;51.344;7.022;2023-02-15T05:24:27;2.70;99.90
16655;DHT22;8441;51.344;7.022;2023-02-15T05:27:13;2.80;99.90
16655;DHT22;8441;51.344;7.022;2023-02-15T05:29:58;2.80;99.90
16655;DHT22;8441;51.344;7.022;2023-02-15T05:32:25;3.00;99.90
16655;DHT22;8441;51.344;7.022;2023-02-15T05:34:52;3.10;99.90
16655;DHT22;8441;51.344;7.022;2023-02-15T05:37:19;3.20;99.90
16655;DHT22;8441;51.344;7.022;2023-02-15T05:39:46;3.30;99.90
16655;DHT22;8441;51.344;7.022;2023-02-15T05:42:15;3.30;99.90
16655;DHT22;8441;51.344;7.022;2023-02-15T05:44:42;3.30;99.90
16655;DHT22;8441;51.344;7.022;2023-02-15T05:47:09;3.10;99.90
16655;DHT22;8441;51.344;7.022;2023-02-15T05:49:36;3.00;99.90
16655;DHT22;8441;51.344;7.022;2023-02-15T05:52:04;3.10;99.90
16655;DHT22;8441;51.344;7.022;2023-02-15T05:54:31;2.90;99.90
16655;DHT22;8441;51.344;7.022;2023-02-15T05:56:58;2.70;99.90
16655;DHT22;8441;51.344;7.022;2023-02-15T05:59:26;2.60;99.90
16655;DHT22;8441;51.344;7.022;2023-02-15T06:01:54;2.50;99.90
16655;DHT22;8441;51.344;7.022;2023-02-15T06:04:21;2.50;99.90
16655;DHT22;8441;51.344;7.022;2023-02-15T06:06:48;2.40;99.90
16655;DHT22;8441;51.344;7.022;2023-02-15T06:09:15;2.40;99.90
16655;DHT22;8441;51.344;7.022;2023-02-15T06:11:44;2.30;99.90
16655;DHT22;8441;51.344;7.022;2023-02-15T06:14:11;2.40;99.90
16655;DHT22;8441;51.344;7.022;2023-02-15T06:16:39;2.30;99.90
16655;DHT22;8441;51.344;7.022;2023-02-15T06:19:06;2.30;99.90
16655;DHT22;8441;51.344;7.022;2023-02-15T06:21:33;2.20;99.90
16655;DHT22;8441;51.344;7.022;2023-02-15T06:24:01;2.20;99.90
16655;DHT22;8441;51.344;7.022;2023-02-15T06:26:28;2.10;99.90
16655;DHT22;8441;51.344;7.022;2023-02-15T06:28:55;2.10;99.90
16655;DHT22;8441;51.344;7.022;2023-02-15T06:31:23;2.10;99.90
16655;DHT22;8441;51.344;7.022;2023-02-15T06:33:52;2.10;99.90
16655;DHT22;8441;51.344;7.022;2023-02-15T06:36:26;2.20;99.90
16655;DHT22;8441;51.344;7.022;2023-02-15T06:38:53;2.20;99.90
16655;DHT22;8441;51.344;7.022;2023-02-15T06:41:20;2.20;99.90
16655;DHT22;8441;51.344;7.022;2023-02-15T06:43:48;2.20;99.90
16655;DHT22;8441;51.344;7.022;2023-02-15T06:46:15;2.20;99.90
16655;DHT22;8441;51.344;7.022;2023-02-15T06:48:42;2.30;99.90
16655;DHT22;8441;51.344;7.022;2023-02-15T06:51:11;2.40;99.90
16655;DHT22;8441;51.344;7.022;2023-02-15T06:53:38;2.40;99.90
16655;DHT22;8441;51.344;7.022;2023-02-15T06:56:07;2.40;99.90
16655;DHT22;8441;51.344;7.022;2023-02-15T06:58:35;2.40;99.90
16655;DHT22;8441;51.344;7.022;2023-02-15T07:01:02;2.40;99.90
16655;DHT22;8441;51.344;7.022;2023-02-15T07:03:29;2.50;99.90
16655;DHT22;8441;51.344;7.022;2023-02-15T07:05:57;2.60;99.90
16655;DHT22;8441;51.344;7.022;2023-02-15T07:08:26;2.70;99.90
16655;DHT22;8441;51.344;7.022;2023-02-15T07:10:55;2.80;99.90
16655;DHT22;8441;51.344;7.022;2023-02-15T07:13:43;2.80;99.90
16655;DHT22;8441;51.344;7.022;2023-02-15T07:16:09;2.80;99.90
16655;DHT22;8441;51.344;7.022;2023-02-15T07:18:36;2.80;99.90
16655;DHT22;8441;51.344;7.022;2023-02-15T07:21:04;2.90;99.90
16655;DHT22;8441;51.344;7.022;2023-02-15T07:23:35;3.00;99.90
16655;DHT22;8441;51.344;7.022;2023-02-15T07:26:03;3.00;99.90
16655;DHT22;8441;51.344;7.022;2023-02-15T07:28:33;3.10;99.90
16655;DHT22;8441;51.344;7.022;2023-02-15T07:31:01;3.00;99.90
16655;DHT22;8441;51.344;7.022;2023-02-15T07:33:30;3.00;99.90
16655;DHT22;8441;51.344;7.022;2023-02-15T07:35:59;2.90;99.90
16655;DHT22;8441;51.344;7.022;2023-02-15T07:38:27;3.00;99.90
16655;DHT22;8441;51.344;7.022;2023-02-15T07:40:59;3.10;99.90
16655;DHT22;8441;51.344;7.022;2023-02-15T07:43:27;3.20;99.90
16655;DHT22;8441;51.344;7.022;2023-02-15T07:45:54;3.20;99.90
16655;DHT22;8441;51.344;7.022;2023-02-15T07:48:25;3.20;99.90
16655;DHT22;8441;51.344;7.022;2023-02-15T07:50:52;3.40;99.90
16655;DHT22;8441;51.344;7.022;2023-02-15T07:53:19;3.50;99.90
16655;DHT22;8441;51.344;7.022;2023-02-15T07:55:46;3.60;99.90
16655;DHT22;8441;51.344;7.022;2023-02-15T07:58:15;3.80;99.90
16655;DHT22;8441;51.344;7.022;2023-02-15T08:00:42;3.90;99.90
16655;DHT22;8441;51.344;7.022;2023-02-15T08:03:27;3.90;99.90
16655;DHT22;8441;51.344;7.022;2023-02-15T08:05:57;4.00;99.90
16655;DHT22;8441;51.344;7.022;2023-02-15T08:08:25;4.00;99.90
16655;DHT22;8441;51.344;7.022;2023-02-15T08:10:59;4.10;99.90
16655;DHT22;8441;51.344;7.022;2023-02-15T08:13:47;4.10;99.90
16655;DHT22;8441;51.344;7.022;2023-02-15T08:16:22;4.00;99.90
16655;DHT22;8441;51.344;7.022;2023-02-15T08:18:50;4.10;99.90
16655;DHT22;8441;51.344;7.022;2023-02-15T08:21:17;4.20;99.90
16655;DHT22;8441;51.344;7.022;2023-02-15T08:23:45;4.30;99.90
16655;DHT22;8441;51.344;7.022;2023-02-15T08:26:12;4.30;99.90
16655;DHT22;8441;51.344;7.022;2023-02-15T08:28:40;4.30;99.90
16655;DHT22;8441;51.344;7.022;2023-02-15T08:31:10;4.40;99.90
16655;DHT22;8441;51.344;7.022;2023-02-15T08:33:39;4.30;99.90
16655;DHT22;8441;51.344;7.022;2023-02-15T08:36:09;4.20;99.90
16655;DHT22;8441;51.344;7.022;2023-02-15T08:38:37;4.30;99.90
16655;DHT22;8441;51.344;7.022;2023-02-15T08:41:12;4.40;99.90
16655;DHT22;8441;51.344;7.022;2023-02-15T08:43:40;4.50;99.90
16655;DHT22;8441;51.344;7.022;2023-02-15T08:46:10;4.50;99.90
16655;DHT22;8441;51.344;7.022;2023-02-15T08:48:38;4.60;99.90
16655;DHT22;8441;51.344;7.022;2023-02-15T08:51:07;4.70;99.90
16655;DHT22;8441;51.344;7.022;2023-02-15T08:53:36;4.80;99.90
16655;DHT22;8441;51.344;7.022;2023-02-15T08:56:03;5.10;99.90
16655;DHT22;8441;51.344;7.022;2023-02-15T08:58:31;5.20;99.90
16655;DHT22;8441;51.344;7.022;2023-02-15T09:00:58;5.30;99.90
16655;DHT22;8441;51.344;7.022;2023-02-15T09:03:26;5.50;99.90
16655;DHT22;8441;51.344;7.022;2023-02-15T09:05:58;5.50;99.90
16655;DHT22;8441;51.344;7.022;2023-02-15T09:08:25;5.50;99.90
16655;DHT22;8441;51.344;7.022;2023-02-15T09:10:52;5.50;99.90
16655;DHT22;8441;51.344;7.022;2023-02-15T09:13:20;5.60;99.90
16655;DHT22;8441;51.344;7.022;2023-02-15T09:15:47;5.70;99.90
16655;DHT22;8441;51.344;7.022;2023-02-15T09:18:14;5.90;99.90
16655;DHT22;8441;51.344;7.022;2023-02-15T09:20:44;5.90;99.90
16655;DHT22;8441;51.344;7.022;2023-02-15T09:23:11;6.00;99.90
16655;DHT22;8441;51.344;7.022;2023-02-15T09:25:39;6.00;99.90
16655;DHT22;8441;51.344;7.022;2023-02-15T09:28:08;5.90;99.90
16655;DHT22;8441;51.344;7.022;2023-02-15T09:30:35;6.00;99.90
16655;DHT22;8441;51.344;7.022;2023-02-15T09:33:02;6.00;99.90
16655;DHT22;8441;51.344;7.022;2023-02-15T09:35:29;6.10;99.90
16655;DHT22;8441;51.344;7.022;2023-02-15T09:37:58;6.10;99.90
16655;DHT22;8441;51.344;7.022;2023-02-15T09:40:25;6.20;99.90
16655;DHT22;8441;51.344;7.022;2023-02-15T09:43:21;6.30;99.90
16655;DHT22;8441;51.344;7.022;2023-02-15T09:46:04;6.30;99.90
16655;DHT22;8441;51.344;7.022;2023-02-15T09:48:42;6.40;99.90
16655;DHT22;8441;51.344;7.022;2023-02-15T09:54:32;6.60;99.90
16655;DHT22;8441;51.344;7.022;2023-02-15T09:57:05;6.70;99.90
16655;DHT22;8441;51.344;7.022;2023-02-15T09:59:42;6.80;99.90
16655;DHT22;8441;51.344;7.022;2023-02-15T10:02:22;6.90;99.90
16655;DHT22;8441;51.344;7.022;2023-02-15T10:05:01;7.00;99.90
16655;DHT22;8441;51.344;7.022;2023-02-15T10:07:48;7.20;99.90
16655;DHT22;8441;51.344;7.022;2023-02-15T10:10:29;7.30;99.90
16655;DHT22;8441;51.344;7.022;2023-02-15T10:13:13;7.50;99.90
16655;DHT22;8441;51.344;7.022;2023-02-15T10:15:53;7.60;99.90
16655;DHT22;8441;51.344;7.022;2023-02-15T10:18:35;7.70;99.90
16655;DHT22;8441;51.344;7.022;2023-02-15T10:21:09;7.70;99.90
16655;DHT22;8441;51.344;7.022;2023-02-15T10:24:06;7.90;99.90
16655;DHT22;8441;51.344;7.022;2023-02-15T10:26:43;8.00;99.90
16655;DHT22;8441;51.344;7.022;2023-02-15T10:29:21;8.20;99.90
16655;DHT22;8441;51.344;7.022;2023-02-15T10:31:58;8.30;99.90
16655;DHT22;8441;51.344;7.022;2023-02-15T10:34:31;8.40;99.90
16655;DHT22;8441;51.344;7.022;2023-02-15T10:37:21;8.50;99.90
16655;DHT22;8441;51.344;7.022;2023-02-15T10:39:59;8.60;99.90
16655;DHT22;8441;51.344;7.022;2023-02-15T10:42:40;8.70;99.90
16655;DHT22;8441;51.344;7.022;2023-02-15T10:45:18;8.80;99.90
16655;DHT22;8441;51.344;7.022;2023-02-15T10:48:06;8.80;99.90
16655;DHT22;8441;51.344;7.022;2023-02-15T10:50:47;8.90;99.90
16655;DHT22;8441;51.344;7.022;2023-02-15T10:53:31;9.00;99.90
16655;DHT22;8441;51.344;7.022;2023-02-15T10:56:10;9.10;99.90
16655;DHT22;8441;51.344;7.022;2023-02-15T10:58:51;9.20;99.90
16655;DHT22;8441;51.344;7.022;2023-02-15T11:01:25;9.20;99.90
16655;DHT22;8441;51.344;7.022;2023-02-15T11:06:54;9.50;99.90
16655;DHT22;8441;51.344;7.022;2023-02-15T11:09:28;9.60;99.90
16655;DHT22;8441;51.344;7.022;2023-02-15T11:11:57;9.60;99.90
16655;DHT22;8441;51.344;7.022;2023-02-15T11:14:37;9.60;99.90
16655;DHT22;8441;51.344;7.022;2023-02-15T11:17:08;9.70;99.90
16655;DHT22;8441;51.344;7.022;2023-02-15T11:19:39;9.80;99.90
16655;DHT22;8441;51.344;7.022;2023-02-15T11:22:10;9.80;99.90
16655;DHT22;8441;51.344;7.022;2023-02-15T11:24:42;9.90;99.90
16655;DHT22;8441;51.344;7.022;2023-02-15T11:27:19;9.90;99.90
16655;DHT22;8441;51.344;7.022;2023-02-15T11:29:53;10.00;99.90
16655;DHT22;8441;51.344;7.022;2023-02-15T11:32:23;10.10;99.90
16655;DHT22;8441;51.344;7.022;2023-02-15T11:34:55;10.20;99.90
16655;DHT22;8441;51.344;7.022;2023-02-15T11:37:28;10.20;99.90
16655;DHT22;8441;51.344;7.022;2023-02-15T11:39:56;10.20;99.90
16655;DHT22;8441;51.344;7.022;2023-02-15T11:42:25;10.30;99.90
16655;DHT22;8441;51.344;7.022;2023-02-15T11:44:59;10.40;99.90
16655;DHT22;8441;51.344;7.022;2023-02-15T11:47:29;10.40;99.90
16655;DHT22;8441;51.344;7.022;2023-02-15T11:49:56;10.50;99.90
16655;DHT22;8441;51.344;7.022;2023-02-15T11:52:24;10.50;99.90
16655;DHT22;8441;51.344;7.022;2023-02-15T11:54:51;10.40;99.90
16655;DHT22;8441;51.344;7.022;2023-02-15T11:57:23;10.40;99.90
16655;DHT22;8441;51.344;7.022;2023-02-15T11:59:57;10.40;99.90
16655;DHT22;8441;51.344;7.022;2023-02-15T12:02:26;10.40;99.90
16655;DHT22;8441;51.344;7.022;2023-02-15T12:04:58;10.40;99.90
16655;DHT22;8441;51.344;7.022;2023-02-15T12:07:30;10.50;99.90
16655;DHT22;8441;51.344;7.022;2023-02-15T12:10:03;10.50;99.90
16655;DHT22;8441;51.344;7.022;2023-02-15T12:12:33;10.50;99.90
16655;DHT22;8441;51.344;7.022;2023-02-15T12:15:04;10.60;99.90
16655;DHT22;8441;51.344;7.022;2023-02-15T12:17:33;10.60;99.90
16655;DHT22;8441;51.344;7.022;2023-02-15T12:20:04;10.70;99.90
16655;DHT22;8441;51.344;7.022;2023-02-15T12:22:36;10.70;99.90
16655;DHT22;8441;51.344;7.022;2023-02-15T12:25:19;10.70;99.90
16655;DHT22;8441;51.344;7.022;2023-02-15T12:27:48;10.70;99.90
16655;DHT22;8441;51.344;7.022;2023-02-15T12:30:21;10.80;99.90
16655;DHT22;8441;51.344;7.022;2023-02-15T12:32:51;10.80;99.90
16655;DHT22;8441;51.344;7.022;2023-02-15T12:35:26;10.90;99.90
16655;DHT22;8441;51.344;7.022;2023-02-15T12:37:56;11.00;99.90
16655;DHT22;8441;51.344;7.022;2023-02-15T12:40:25;11.10;99.90
16655;DHT22;8441;51.344;7.022;2023-02-15T12:42:53;11.20;99.90
16655;DHT22;8441;51.344;7.022;2023-02-15T12:45:29;11.20;99.90
16655;DHT22;8441;51.344;7.022;2023-02-15T12:48:16;11.20;99.90
16655;DHT22;8441;51.344;7.022;2023-02-15T12:50:45;11.30;99.90
16655;DHT22;8441;51.344;7.022;2023-02-15T12:53:16;11.30;99.90
16655;DHT22;8441;51.344;7.022;2023-02-15T12:55:53;11.40;99.90
16655;DHT22;8441;51.344;7.022;2023-02-15T12:58:22;11.40;99.90
16655;DHT22;8441;51.344;7.022;2023-02-15T13:01:09;11.40;99.90
16655;DHT22;8441;51.344;7.022;2023-02-15T13:03:53;11.50;99.90
16655;DHT22;8441;51.344;7.022;2023-02-15T13:06:21;11.50;99.90
16655;DHT22;8441;51.344;7.022;2023-02-15T13:08:50;11.60;99.90
16655;DHT22;8441;51.344;7.022;2023-02-15T13:11:22;11.60;99.90
16655;DHT22;8441;51.344;7.022;2023-02-15T13:13:54;11.60;99.90
16655;DHT22;8441;51.344;7.022;2023-02-15T13:16:29;11.60;99.90
16655;DHT22;8441;51.344;7.022;2023-02-15T13:18:57;11.60;99.90
16655;DHT22;8441;51.344;7.022;2023-02-15T13:21:29;11.60;99.90
16655;DHT22;8441;51.344;7.022;2023-02-15T13:24:01;11.60;99.90
16655;DHT22;8441;51.344;7.022;2023-02-15T13:26:31;11.70;99.90
16655;DHT22;8441;51.344;7.022;2023-02-15T13:29:03;11.70;99.90
16655;DHT22;8441;51.344;7.022;2023-02-15T13:31:35;11.80;99.90
16655;DHT22;8441;51.344;7.022;2023-02-15T13:34:07;11.80;99.90
16655;DHT22;8441;51.344;7.022;2023-02-15T13:36:42;11.90;99.90
16655;DHT22;8441;51.344;7.022;2023-02-15T13:39:20;12.00;99.90
16655;DHT22;8441;51.344;7.022;2023-02-15T13:41:55;12.10;99.90
16655;DHT22;8441;51.344;7.022;2023-02-15T13:44:39;12.20;99.00
16655;DHT22;8441;51.344;7.022;2023-02-15T13:47:21;12.20;99.60
16655;DHT22;8441;51.344;7.022;2023-02-15T13:50:01;12.20;99.20
16655;DHT22;8441;51.344;7.022;2023-02-15T13:52:39;12.20;99.60
16655;DHT22;8441;51.344;7.022;2023-02-15T13:55:23;12.30;99.80
16655;DHT22;8441;51.344;7.022;2023-02-15T13:58:05;12.30;99.20
16655;DHT22;8441;51.344;7.022;2023-02-15T14:00:42;12.30;98.50
16655;DHT22;8441;51.344;7.022;2023-02-15T14:06:31;12.40;98.30
16655;DHT22;8441;51.344;7.022;2023-02-15T14:09:13;12.40;98.00
16655;DHT22;8441;51.344;7.022;2023-02-15T14:11:48;12.40;99.50
16655;DHT22;8441;51.344;7.022;2023-02-15T14:14:51;12.50;98.50
16655;DHT22;8441;51.344;7.022;2023-02-15T14:17:32;12.50;98.10
16655;DHT22;8441;51.344;7.022;2023-02-15T14:20:08;12.50;99.20
16655;DHT22;8441;51.344;7.022;2023-02-15T14:22:46;12.50;99.40
16655;DHT22;8441;51.344;7.022;2023-02-15T14:25:20;12.50;99.40
16655;DHT22;8441;51.344;7.022;2023-02-15T14:27:59;12.60;97.60
16655;DHT22;8441;51.344;7.022;2023-02-15T14:30:32;12.60;97.60
16655;DHT22;8441;51.344;7.022;2023-02-15T14:33:05;12.60;98.20
16655;DHT22;8441;51.344;7.022;2023-02-15T14:35:34;12.60;98.00
16655;DHT22;8441;51.344;7.022;2023-02-15T14:38:11;12.50;98.30
16655;DHT22;8441;51.344;7.022;2023-02-15T14:40:47;12.40;98.70
16655;DHT22;8441;51.344;7.022;2023-02-15T14:43:49;12.40;98.80
16655;DHT22;8441;51.344;7.022;2023-02-15T14:46:22;12.30;99.00
16655;DHT22;8441;51.344;7.022;2023-02-15T14:48:53;12.20;98.60
16655;DHT22;8441;51.344;7.022;2023-02-15T14:51:55;12.10;98.10
16655;DHT22;8441;51.344;7.022;2023-02-15T14:54:54;12.00;98.90
16655;DHT22;8441;51.344;7.022;2023-02-15T14:57:31;11.90;99.20
16655;DHT22;8441;51.344;7.022;2023-02-15T15:00:14;11.80;99.40
16655;DHT22;8441;51.344;7.022;2023-02-15T15:02:53;11.80;99.70
16655;DHT22;8441;51.344;7.022;2023-02-15T15:05:24;11.80;99.90
16655;DHT22;8441;51.344;7.022;2023-02-15T15:07:55;11.80;99.90
16655;DHT22;8441;51.344;7.022;2023-02-15T15:10:40;11.80;99.90
16655;DHT22;8441;51.344;7.022;2023-02-15T15:16:48;11.70;99.90
16655;DHT22;8441;51.344;7.022;2023-02-15T15:22:22;11.80;99.90
16655;DHT22;8441;51.344;7.022;2023-02-15T15:24:52;11.70;99.90
16655;DHT22;8441;51.344;7.022;2023-02-15T15:27:47;11.60;99.90
16655;DHT22;8441;51.344;7.022;2023-02-15T15:42:49;11.40;99.90
16655;DHT22;8441;51.344;7.022;2023-02-15T15:45:44;11.40;99.90
16655;DHT22;8441;51.344;7.022;2023-02-15T15:48:36;11.30;99.90
16655;DHT22;8441;51.344;7.022;2023-02-15T15:51:10;11.30;99.90
16655;DHT22;8441;51.344;7.022;2023-02-15T15:53:40;11.20;99.90
16655;DHT22;8441;51.344;7.022;2023-02-15T15:56:14;11.10;99.90
16655;DHT22;8441;51.344;7.022;2023-02-15T15:58:48;11.00;99.90
16655;DHT22;8441;51.344;7.022;2023-02-15T16:01:16;10.90;99.90
16655;DHT22;8441;51.344;7.022;2023-02-15T16:03:50;10.80;99.90
16655;DHT22;8441;51.344;7.022;2023-02-15T16:06:32;10.70;99.90
16655;DHT22;8441;51.344;7.022;2023-02-15T16:09:11;10.60;99.90
16655;DHT22;8441;51.344;7.022;2023-02-15T16:11:38;10.60;99.90
16655;DHT22;8441;51.344;7.022;2023-02-15T16:14:12;10.50;99.90
16655;DHT22;8441;51.344;7.022;2023-02-15T16:16:40;10.40;99.90
16655;DHT22;8441;51.344;7.022;2023-02-15T16:19:19;10.30;99.90
16655;DHT22;8441;51.344;7.022;2023-02-15T16:21:48;10.20;99.90
16655;DHT22;8441;51.344;7.022;2023-02-15T16:24:37;10.10;99.90
16655;DHT22;8441;51.344;7.022;2023-02-15T16:27:22;10.00;99.90
16655;DHT22;8441;51.344;7.022;2023-02-15T16:29:54;9.80;99.90
16655;DHT22;8441;51.344;7.022;2023-02-15T16:32:22;9.70;99.90
16655;DHT22;8441;51.344;7.022;2023-02-15T16:34:52;9.70;99.90
16655;DHT22;8441;51.344;7.022;2023-02-15T16:37:22;9.50;99.90
16655;DHT22;8441;51.344;7.022;2023-02-15T16:39:51;9.40;99.90
16655;DHT22;8441;51.344;7.022;2023-02-15T16:42:18;9.20;99.90
16655;DHT22;8441;51.344;7.022;2023-02-15T16:44:48;9.10;99.90
16655;DHT22;8441;51.344;7.022;2023-02-15T16:47:21;9.00;99.90
16655;DHT22;8441;51.344;7.022;2023-02-15T16:49:51;9.00;99.90
16655;DHT22;8441;51.344;7.022;2023-02-15T16:52:21;9.00;99.90
16655;DHT22;8441;51.344;7.022;2023-02-15T16:54:56;8.90;99.90
16655;DHT22;8441;51.344;7.022;2023-02-15T16:57:25;8.80;99.90
16655;DHT22;8441;51.344;7.022;2023-02-15T16:59:55;8.70;99.90
16655;DHT22;8441;51.344;7.022;2023-02-15T17:02:27;8.70;99.90
16655;DHT22;8441;51.344;7.022;2023-02-15T17:05:08;8.60;99.90
16655;DHT22;8441;51.344;7.022;2023-02-15T17:07:48;8.60;99.90
16655;DHT22;8441;51.344;7.022;2023-02-15T17:10:30;8.60;99.90